createdAt,value
2023-01-12T00:01:15.677Z,17.23
2023-01-12T00:04:21.243Z,17.67
2023-01-12T00:07:23.884Z,15.37
2023-01-12T00:10:26.517Z,15.93
2023-01-12T00:13:29.974Z,15.20
2023-01-12T00:16:35.806Z,16.62
2023-01-12T00:19:39.376Z,17.70
2023-01-12T00:22:42.021Z,17.83
2023-01-12T00:25:50.791Z,16.73
2023-01-12T00:28:54.157Z,17.02
2023-01-12T00:31:58.499Z,16.58
2023-01-12T00:35:01.180Z,16.37
2023-01-12T00:38:06.355Z,17.93
2023-01-12T00:41:11.517Z,18.87
2023-01-12T00:44:32.435Z,17.98
2023-01-12T00:47:35.402Z,16.17
2023-01-12T00:50:37.837Z,16.65
2023-01-12T00:53:40.604Z,16.67
2023-01-12T00:56:43.091Z,17.15
2023-01-12T00:59:46.526Z,17.75
2023-01-12T01:02:49.208Z,16.98
2023-01-12T01:05:51.925Z,16.35
2023-01-12T01:08:54.301Z,14.63
2023-01-12T01:11:58.314Z,19.27
2023-01-12T01:15:00.699Z,18.95
2023-01-12T01:18:03.424Z,18.37
2023-01-12T01:21:06.113Z,19.20
2023-01-12T01:24:14.281Z,19.20
2023-01-12T01:27:16.871Z,18.85
2023-01-12T01:30:19.534Z,19.70
2023-01-12T01:33:21.844Z,20.83
2023-01-12T01:36:24.572Z,23.38
2023-01-12T01:39:26.947Z,21.87
2023-01-12T01:42:29.662Z,23.77
2023-01-12T01:45:32.475Z,21.55
2023-01-12T01:48:39.209Z,23.95
2023-01-12T01:51:42.332Z,27.60
2023-01-12T01:54:56.115Z,26.20
2023-01-12T01:58:02.865Z,25.17
2023-01-12T02:01:06.439Z,23.60
2023-01-12T02:04:09.503Z,16.33
2023-01-12T02:07:12.566Z,15.13
2023-01-12T02:10:15.361Z,16.47
2023-01-12T02:13:37.351Z,16.33
2023-01-12T02:17:01.268Z,16.62
2023-01-12T02:20:12.706Z,19.12
2023-01-12T02:23:32.019Z,22.85
2023-01-12T02:26:55.049Z,24.77
2023-01-12T02:30:30.699Z,25.42
2023-01-12T02:33:48.352Z,26.58
2023-01-12T02:37:21.636Z,26.83
2023-01-12T02:40:53.166Z,26.95
2023-01-12T02:43:55.868Z,26.20
2023-01-12T02:47:05.274Z,22.37
2023-01-12T02:50:12.797Z,21.50
2023-01-12T02:53:27.967Z,21.33
2023-01-12T02:56:34.784Z,19.92
2023-01-12T02:59:41.972Z,24.37
2023-01-12T03:02:44.432Z,19.10
2023-01-12T03:05:47.612Z,18.95
2023-01-12T03:08:52.570Z,19.80
2023-01-12T03:12:03.844Z,19.05
2023-01-12T03:15:08.830Z,18.83
2023-01-12T03:18:35.229Z,18.08
2023-01-12T03:21:42.580Z,20.05
2023-01-12T03:24:56.698Z,20.00
2023-01-12T03:28:01.046Z,20.37
2023-01-12T03:31:09.460Z,18.30
2023-01-12T03:34:12.002Z,17.45
2023-01-12T03:37:25.020Z,16.85
2023-01-12T03:40:35.420Z,15.77
2023-01-12T03:44:00.248Z,13.00
2023-01-12T03:47:09.932Z,10.97
2023-01-12T03:50:35.177Z,10.30
2023-01-12T03:53:40.054Z,8.95
2023-01-12T03:56:45.482Z,8.38
2023-01-12T03:59:49.072Z,8.30
2023-01-12T04:03:09.261Z,8.20
2023-01-12T04:06:11.921Z,7.55
2023-01-12T04:09:14.251Z,7.95
2023-01-12T04:12:16.854Z,8.23
2023-01-12T04:15:19.338Z,8.38
2023-01-12T04:18:22.034Z,7.50
2023-01-12T04:21:43.458Z,7.95
2023-01-12T04:24:46.740Z,6.65
2023-01-12T04:27:56.875Z,6.30
2023-01-12T04:30:59.491Z,6.90
2023-01-12T04:34:02.130Z,5.17
2023-01-12T04:37:05.162Z,6.45
2023-01-12T04:40:08.969Z,7.15
2023-01-12T04:43:12.079Z,7.00
2023-01-12T04:46:14.489Z,6.82
2023-01-12T04:49:18.101Z,6.70
2023-01-12T04:52:20.454Z,6.03
2023-01-12T04:55:23.231Z,7.47
2023-01-12T04:58:25.630Z,6.75
2023-01-12T05:01:29.952Z,8.60
2023-01-12T05:04:32.544Z,10.37
2023-01-12T05:07:36.689Z,9.60
2023-01-12T05:10:39.459Z,8.70
2023-01-12T05:13:42.517Z,9.05
2023-01-12T05:16:45.037Z,9.90
2023-01-12T05:19:49.651Z,10.10
2023-01-12T05:22:52.760Z,11.65
2023-01-12T05:25:59.306Z,11.77
2023-01-12T05:29:01.751Z,13.55
2023-01-12T05:32:04.618Z,12.82
2023-01-12T05:35:08.836Z,11.60
2023-01-12T05:38:11.918Z,10.45
2023-01-12T05:41:14.870Z,9.57
2023-01-12T05:44:17.625Z,9.55
2023-01-12T05:47:20.085Z,10.52
2023-01-12T05:50:22.759Z,9.03
2023-01-12T05:53:26.822Z,10.55
2023-01-12T05:56:30.509Z,12.15
2023-01-12T05:59:33.041Z,9.40
2023-01-12T06:02:35.710Z,9.75
2023-01-12T06:05:38.463Z,10.67
2023-01-12T06:08:40.801Z,10.82
2023-01-12T06:12:02.059Z,10.48
2023-01-12T06:15:04.757Z,11.52
2023-01-12T06:18:07.371Z,12.32
2023-01-12T06:21:10.330Z,14.40
2023-01-12T06:24:12.936Z,16.35
2023-01-12T06:27:16.621Z,17.70
2023-01-12T06:30:19.304Z,16.15
2023-01-12T06:33:21.651Z,13.20
2023-01-12T06:36:24.467Z,12.73
2023-01-12T06:39:28.991Z,11.98
2023-01-12T06:42:31.942Z,12.75
2023-01-12T06:45:34.252Z,17.05
2023-01-12T06:48:39.184Z,22.67
2023-01-12T06:51:42.235Z,22.17
2023-01-12T06:54:44.909Z,24.17
2023-01-12T06:57:47.279Z,24.92
2023-01-12T07:00:50.534Z,23.08
2023-01-12T07:03:53.657Z,25.05
2023-01-12T07:06:56.391Z,23.30
2023-01-12T07:09:58.676Z,22.40
2023-01-12T07:13:01.295Z,24.17
2023-01-12T07:16:04.049Z,24.85
2023-01-12T07:19:06.689Z,23.00
2023-01-12T07:22:09.304Z,21.47
2023-01-12T07:25:11.936Z,20.92
2023-01-12T07:28:14.642Z,19.25
2023-01-12T07:31:19.440Z,17.98
2023-01-12T07:34:21.996Z,16.67
2023-01-12T07:37:24.700Z,17.23
2023-01-12T07:40:27.160Z,16.70
2023-01-12T07:43:30.583Z,15.30
2023-01-12T07:46:33.064Z,14.57
2023-01-12T07:49:35.789Z,14.85
2023-01-12T07:52:38.358Z,15.10
2023-01-12T07:55:43.718Z,15.13
2023-01-12T07:58:49.678Z,18.02
2023-01-12T08:01:53.885Z,14.40
2023-01-12T08:04:57.073Z,13.43
2023-01-12T08:08:00.007Z,14.33
2023-01-12T08:11:05.044Z,12.77
2023-01-12T08:14:07.388Z,12.65
2023-01-12T08:17:21.784Z,12.90
2023-01-12T08:20:30.534Z,14.25
2023-01-12T08:23:41.668Z,12.47
2023-01-12T08:26:48.211Z,13.20
2023-01-12T08:29:54.553Z,12.35
2023-01-12T08:33:00.778Z,12.75
2023-01-12T08:36:10.408Z,14.35
2023-01-12T08:39:12.906Z,14.77
2023-01-12T08:42:15.639Z,15.80
2023-01-12T08:45:18.157Z,13.75
2023-01-12T08:48:20.953Z,14.63
2023-01-12T08:51:23.358Z,15.50
2023-01-12T08:54:26.167Z,14.23
2023-01-12T08:57:28.766Z,16.40
2023-01-12T09:00:31.672Z,14.55
2023-01-12T09:03:34.810Z,14.18
2023-01-12T09:06:40.635Z,15.23
2023-01-12T09:09:43.016Z,13.63
2023-01-12T09:12:45.683Z,13.60
2023-01-12T09:16:10.886Z,13.27
2023-01-12T09:19:11.062Z,13.05
2023-01-12T09:22:13.378Z,13.75
2023-01-12T09:25:16.274Z,13.33
2023-01-12T09:28:18.646Z,13.75
2023-01-12T09:31:23.558Z,13.20
2023-01-12T09:34:28.525Z,11.27
2023-01-12T09:37:31.508Z,10.73
2023-01-12T09:40:35.627Z,14.07
2023-01-12T09:43:59.365Z,14.40
2023-01-12T09:47:05.405Z,15.10
2023-01-12T09:50:28.272Z,13.77
2023-01-12T09:53:34.334Z,13.52
2023-01-12T09:57:01.857Z,14.00
2023-01-12T10:00:13.839Z,13.88
2023-01-12T10:03:41.663Z,12.50
2023-01-12T10:06:44.310Z,12.95
2023-01-12T10:09:47.057Z,12.15
2023-01-12T10:12:59.971Z,12.10
2023-01-12T10:16:14.567Z,11.52
2023-01-12T10:19:31.152Z,12.55
2023-01-12T10:23:09.003Z,11.90
2023-01-12T10:26:18.592Z,11.52
2023-01-12T10:29:21.254Z,11.90
2023-01-12T10:32:31.384Z,12.23
2023-01-12T10:35:59.526Z,11.68
2023-01-12T10:39:04.885Z,11.75
2023-01-12T10:42:35.880Z,13.07
2023-01-12T10:45:38.384Z,12.33
2023-01-12T10:48:45.057Z,12.00
2023-01-12T10:52:02.157Z,11.73
2023-01-12T10:55:05.388Z,11.45
2023-01-12T10:58:30.336Z,9.77
2023-01-12T11:02:11.856Z,10.50
2023-01-12T11:05:30.768Z,9.93
2023-01-12T11:08:33.410Z,10.35
2023-01-12T11:11:35.845Z,9.80
2023-01-12T11:14:38.507Z,11.07
2023-01-12T11:18:08.877Z,11.10
2023-01-12T11:21:14.967Z,10.82
2023-01-12T11:24:23.236Z,9.98
2023-01-12T11:27:31.308Z,10.13
2023-01-12T11:30:46.851Z,10.00
2023-01-12T11:34:00.362Z,8.73
2023-01-12T11:37:10.820Z,8.73
2023-01-12T11:40:25.756Z,10.25
2023-01-12T11:43:46.450Z,10.65
2023-01-12T11:46:56.174Z,10.27
2023-01-12T11:50:05.920Z,11.07
2023-01-12T11:53:19.146Z,9.43
2023-01-12T11:56:30.320Z,10.40
2023-01-12T11:59:45.070Z,9.82
2023-01-12T12:02:50.351Z,8.43
2023-01-12T12:06:22.708Z,8.63
2023-01-12T12:09:39.566Z,7.85
2023-01-12T12:12:49.898Z,8.70
2023-01-12T12:16:16.842Z,9.25
2023-01-12T12:19:27.537Z,9.07
2023-01-12T12:22:53.089Z,10.37
2023-01-12T12:26:21.833Z,11.18
2023-01-12T12:29:59.047Z,9.52
2023-01-12T12:33:20.796Z,9.35
2023-01-12T12:37:02.591Z,9.57
2023-01-12T12:40:56.381Z,9.57
2023-01-12T12:44:52.593Z,9.38
2023-01-12T12:48:01.685Z,10.23
2023-01-12T12:51:08.602Z,10.75
2023-01-12T12:54:17.217Z,9.77
2023-01-12T12:57:19.531Z,8.47
2023-01-12T13:00:46.776Z,9.13
2023-01-12T13:03:51.938Z,8.63
2023-01-12T13:06:54.598Z,8.25
2023-01-12T13:10:15.429Z,7.97
2023-01-12T13:13:33.546Z,6.97
2023-01-12T13:16:35.873Z,7.57
2023-01-12T13:19:40.053Z,9.50
2023-01-12T13:22:42.380Z,8.27
2023-01-12T13:25:51.155Z,8.63
2023-01-12T13:29:24.900Z,8.83
2023-01-12T13:32:42.897Z,7.90
2023-01-12T13:35:46.254Z,8.60
2023-01-12T13:38:59.401Z,8.93
2023-01-12T13:42:20.670Z,8.68
2023-01-12T13:45:24.003Z,6.97
2023-01-12T13:48:28.388Z,8.27
2023-01-12T13:51:50.597Z,8.70
2023-01-12T13:54:53.014Z,8.40
2023-01-12T13:57:58.187Z,9.00
2023-01-12T14:01:01.506Z,10.00
2023-01-12T14:04:19.849Z,10.13
2023-01-12T14:07:37.781Z,10.45
2023-01-12T14:10:54.065Z,12.05
2023-01-12T14:14:44.585Z,11.48
2023-01-12T14:17:52.701Z,10.40
2023-01-12T14:20:59.636Z,11.98
2023-01-12T14:24:16.446Z,11.80
2023-01-12T14:27:23.434Z,11.20
2023-01-12T14:30:28.543Z,8.98
2023-01-12T14:33:35.735Z,10.83
2023-01-12T14:36:44.202Z,11.12
2023-01-12T14:39:46.875Z,13.73
2023-01-12T14:43:08.486Z,12.80
2023-01-12T14:46:27.363Z,11.70
2023-01-12T14:49:35.670Z,9.23
2023-01-12T14:52:38.882Z,9.48
2023-01-12T14:55:41.774Z,12.68
2023-01-12T14:58:46.602Z,12.48
2023-01-12T15:01:50.425Z,11.35
2023-01-12T15:05:03.182Z,9.97
2023-01-12T15:08:08.888Z,9.57
2023-01-12T15:11:11.207Z,10.90
2023-01-12T15:14:22.312Z,9.55
2023-01-12T15:17:43.345Z,7.97
2023-01-12T15:21:04.886Z,8.77
2023-01-12T15:24:49.027Z,6.97
2023-01-12T15:27:51.677Z,6.75
2023-01-12T15:30:55.769Z,7.32
2023-01-12T15:33:58.757Z,8.35
2023-01-12T15:37:01.140Z,8.67
2023-01-12T15:40:05.553Z,7.82
2023-01-12T15:43:17.068Z,6.82
2023-01-12T15:46:22.241Z,8.05
2023-01-12T15:49:24.684Z,10.77
2023-01-12T15:52:27.327Z,7.63
2023-01-12T15:55:36.049Z,7.30
2023-01-12T15:58:38.911Z,7.30
2023-01-12T16:01:47.086Z,7.15
2023-01-12T16:04:49.933Z,7.10
2023-01-12T16:07:53.093Z,7.10
2023-01-12T16:11:13.443Z,6.75
2023-01-12T16:14:16.035Z,5.95
2023-01-12T16:17:19.013Z,6.78
2023-01-12T16:20:21.495Z,7.35
2023-01-12T16:23:24.420Z,8.40
2023-01-12T16:26:28.530Z,7.60
2023-01-12T16:29:31.417Z,6.85
2023-01-12T16:32:33.837Z,6.53
2023-01-12T16:35:36.688Z,7.32
2023-01-12T16:38:39.139Z,6.80
2023-01-12T16:41:42.083Z,7.22
2023-01-12T16:44:44.608Z,6.35
2023-01-12T16:47:47.198Z,6.28
2023-01-12T16:50:49.561Z,6.87
2023-01-12T16:53:55.148Z,8.57
2023-01-12T16:56:58.930Z,8.88
2023-01-12T17:00:01.893Z,8.82
2023-01-12T17:03:04.941Z,6.82
2023-01-12T17:06:14.892Z,7.62
2023-01-12T17:09:17.958Z,6.60
2023-01-12T17:12:20.788Z,6.12
2023-01-12T17:15:23.351Z,6.18
2023-01-12T17:18:27.266Z,8.70
2023-01-12T17:21:29.773Z,9.60
2023-01-12T17:24:34.104Z,7.63
2023-01-12T17:27:36.723Z,7.70
2023-01-12T17:30:39.585Z,7.28
2023-01-12T17:33:42.235Z,7.00
2023-01-12T17:36:45.235Z,7.68
2023-01-12T17:39:47.689Z,7.73
2023-01-12T17:43:02.786Z,7.60
2023-01-12T17:46:08.588Z,7.93
2023-01-12T17:49:12.217Z,8.68
2023-01-12T17:52:14.845Z,8.75
2023-01-12T17:55:17.554Z,8.80
2023-01-12T17:58:19.953Z,9.25
2023-01-12T18:01:24.485Z,8.82
2023-01-12T18:04:27.308Z,9.82
2023-01-12T18:07:32.004Z,12.32
2023-01-12T18:10:34.705Z,9.67
2023-01-12T18:13:38.002Z,9.77
2023-01-12T18:16:42.230Z,8.77
2023-01-12T18:19:44.641Z,9.02
2023-01-12T18:22:47.341Z,9.27
2023-01-12T18:25:49.690Z,10.43
2023-01-12T18:28:53.946Z,10.80
2023-01-12T18:31:56.285Z,10.35
2023-01-12T18:34:58.970Z,11.30
2023-01-12T18:38:01.359Z,10.85
2023-01-12T18:41:22.744Z,11.93
2023-01-12T18:44:25.442Z,10.90
2023-01-12T18:47:46.789Z,10.95
2023-01-12T18:51:11.773Z,11.35
2023-01-12T18:54:14.407Z,10.23
2023-01-12T18:57:18.744Z,10.83
2023-01-12T19:00:23.774Z,12.07
2023-01-12T19:03:26.123Z,10.85
2023-01-12T19:06:42.369Z,11.75
2023-01-12T19:09:44.749Z,11.32
2023-01-12T19:12:49.227Z,12.70
2023-01-12T19:16:10.516Z,11.80
2023-01-12T19:19:13.303Z,11.52
2023-01-12T19:22:34.320Z,13.23
2023-01-12T19:25:55.600Z,13.85
2023-01-12T19:28:57.988Z,12.57
2023-01-12T19:32:00.657Z,15.07
2023-01-12T19:35:10.907Z,15.25
2023-01-12T19:38:14.905Z,15.55
2023-01-12T19:41:35.870Z,14.13
2023-01-12T19:44:38.578Z,15.70
2023-01-12T19:47:41.112Z,17.70
2023-01-12T19:50:44.999Z,17.52
2023-01-12T19:53:47.376Z,19.08
2023-01-12T19:56:50.108Z,19.23
2023-01-12T19:59:52.445Z,20.50
2023-01-12T20:02:55.277Z,19.73
2023-01-12T20:05:58.355Z,19.15
2023-01-12T20:09:00.752Z,20.12
2023-01-12T20:12:05.276Z,20.62
2023-01-12T20:15:08.354Z,20.97
2023-01-12T20:18:11.149Z,20.62
2023-01-12T20:21:13.736Z,19.45
2023-01-12T20:24:16.465Z,20.80
2023-01-12T20:27:18.940Z,21.20
2023-01-12T20:30:37.023Z,19.60
2023-01-12T20:33:39.834Z,21.90
2023-01-12T20:36:46.000Z,20.10
2023-01-12T20:39:53.157Z,20.98
2023-01-12T20:42:55.805Z,19.80
2023-01-12T20:45:58.146Z,21.07
2023-01-12T20:49:02.509Z,20.77
2023-01-12T20:52:04.854Z,23.75
2023-01-12T20:55:08.322Z,23.50
2023-01-12T20:58:11.233Z,23.42
2023-01-12T21:01:15.485Z,22.93
2023-01-12T21:04:19.479Z,23.08
2023-01-12T21:07:22.231Z,26.45
2023-01-12T21:10:24.650Z,23.83
2023-01-12T21:13:27.271Z,28.02
2023-01-12T21:16:31.273Z,25.73
2023-01-12T21:19:34.666Z,28.40
2023-01-12T21:22:37.132Z,29.30
2023-01-12T21:25:43.846Z,31.25
2023-01-12T21:28:46.373Z,31.35
2023-01-12T21:31:49.293Z,32.33
2023-01-12T21:34:51.728Z,30.45
2023-01-12T21:37:54.483Z,32.47
2023-01-12T21:41:01.787Z,30.10
2023-01-12T21:44:04.430Z,26.80
2023-01-12T21:47:06.934Z,29.83
2023-01-12T21:50:10.336Z,27.05
2023-01-12T21:53:18.608Z,29.30
2023-01-12T21:56:21.237Z,27.13
2023-01-12T21:59:23.641Z,27.25
2023-01-12T22:02:26.292Z,27.77
2023-01-12T22:05:29.302Z,30.60
2023-01-12T22:08:33.881Z,28.58
2023-01-12T22:11:38.657Z,27.95
2023-01-12T22:14:40.974Z,30.15
2023-01-12T22:17:44.130Z,29.33
2023-01-12T22:20:46.652Z,29.73
2023-01-12T22:23:49.704Z,28.52
2023-01-12T22:26:52.317Z,28.30
2023-01-12T22:29:55.569Z,27.85
2023-01-12T22:32:57.984Z,28.67
2023-01-12T22:36:05.272Z,26.65
2023-01-12T22:39:07.647Z,28.02
2023-01-12T22:42:10.289Z,25.02
2023-01-12T22:45:13.605Z,26.60
2023-01-12T22:48:16.727Z,26.03
2023-01-12T22:51:21.190Z,26.58
2023-01-12T22:54:23.798Z,27.05
2023-01-12T22:57:26.124Z,25.52
2023-01-12T23:00:28.752Z,24.58
2023-01-12T23:03:31.605Z,25.03
2023-01-12T23:06:37.299Z,24.67
2023-01-12T23:09:39.719Z,24.00
2023-01-12T23:13:02.646Z,24.20
2023-01-12T23:16:07.121Z,25.90
2023-01-12T23:19:10.542Z,26.97
2023-01-12T23:22:12.874Z,25.75
2023-01-12T23:25:15.532Z,27.02
2023-01-12T23:28:17.883Z,25.37
2023-01-12T23:31:22.422Z,26.80
2023-01-12T23:34:24.755Z,27.20
2023-01-12T23:37:27.349Z,26.65
2023-01-12T23:40:29.789Z,26.45
2023-01-12T23:43:33.911Z,25.05
2023-01-12T23:46:39.003Z,24.65
2023-01-12T23:49:42.955Z,25.20
2023-01-12T23:52:48.841Z,27.75
2023-01-12T23:55:52.431Z,26.58
2023-01-12T23:58:55.078Z,28.12
